• Join FlightAware (Why Join?)
  • Login
  • US Flag 
07:33PM EST


 

Airport Tracker/Info


-or-


 

Live Flight TrackerFlight Track Log ✈ CES5737 ✈ 09-Oct-2013 ✈ ZPPP / KMG - ZGGG / CAN

Flight Track Log - Related Links

Times and Time Zones

All times are in EDT time to prevent confusion due to time zone crossing. See the CES5737 flight status page for this flight to view local times or setup timezone preferences in your user account.

Time Position Orientation Groundspeed Altitude Reporting Facility
EDT Latitude Longitude Course Direction KTS MPH feet Rate Location/Type
05:27AM 24.8141 105.0446 98° East  Level Estimated
05:28AM 24.7990 105.1501 99° East  Level Estimated
05:29AM 24.7837 105.2556 99° East  Level Estimated
05:30AM 24.7684 105.3611 99° East  Level Estimated
05:31AM 24.7530 105.4665 99° East  Level Estimated
05:32AM 24.7376 105.5719 99° East  Level Estimated
05:33AM 24.7220 105.6773 99° East  Level Estimated
05:34AM 24.7064 105.7827 99° East  Level Estimated
05:35AM 24.6907 105.8880 99° East  Level Estimated
05:36AM 24.6749 105.9933 99° East  Level Estimated
05:37AM 24.6591 106.0986 99° East  Level Estimated
05:38AM 24.6432 106.2038 99° East  Level Estimated
05:39AM 24.6272 106.3090 99° East  Level Estimated
05:40AM 24.6112 106.4142 100° East  Level Estimated
05:41AM 24.5950 106.5194 100° East  Level Estimated
05:42AM 24.5788 106.6245 100° East  Level Estimated
05:43AM 24.5626 106.7296 100° East  Level Estimated
05:44AM 24.5462 106.8347 100° East  Level Estimated
05:45AM 24.5298 106.9398 100° East  Level Estimated
05:46AM 24.5133 107.0448 100° East  Level Estimated
05:47AM 24.4967 107.1498 100° East  Level Estimated
05:48AM 24.4801 107.2548 100° East  Level Estimated
05:49AM 24.4634 107.3597 100° East  Level Estimated
05:50AM 24.4466 107.4647 100° East  Level Estimated
05:51AM 24.4298 107.5695 100° East  Level Estimated
05:52AM 24.4128 107.6744 100° East  Level Estimated
05:53AM 24.3958 107.7792 100° East  Level Estimated
05:54AM 24.3788 107.8840 100° East  Level Estimated
05:55AM 24.3616 107.9888 100° East  Level Estimated
05:56AM 24.3444 108.0936 100° East  Level Estimated
05:57AM 24.3271 108.1983 100° East  Level Estimated
05:58AM 24.3097 108.3030 100° East  Level Estimated
05:59AM 24.2923 108.4076 100° East  Level Estimated
06:00AM 24.2748 108.5123 100° East  Level Estimated
06:01AM 24.2572 108.6169 100° East  Level Estimated
06:02AM 24.2396 108.7215 100° East  Level Estimated
06:03AM 24.2219 108.8260 101° East  Level Estimated
06:04AM 24.2041 108.9305 101° East  Level Estimated
06:05AM 24.1862 109.0350 101° East  Level Estimated
06:06AM 24.1683 109.1395 101° East  Level Estimated
06:07AM 24.1503 109.2439 101° East  Level Estimated
06:08AM 24.1322 109.3483 101° East  Level Estimated
06:09AM 24.1141 109.4527 101° East  Level Estimated
06:10AM 24.0959 109.5570 101° East  Level Estimated
06:11AM 24.0776 109.6613 101° East  Level Estimated
06:12AM 24.0592 109.7656 101° East  Level Estimated
06:12AM 23.3580 110.9030 101° East 446 513 31,100  Level FlightAware
06:13AM 24.0408 109.8699 101° East  Level Estimated
06:13AM 23.3460 110.9720 101° East 446 513 31,100  Level FlightAware
06:14AM 23.3300 111.0600 101° East 447 514 31,100  Level FlightAware
06:14AM 23.3180 111.1310 100° East 447 514 31,100  Level FlightAware
06:15AM 23.3070 111.2010 100° East 447 514 31,100  Level FlightAware
06:15AM 23.2960 111.2690 100° East 447 514 31,100  Level FlightAware
06:16AM 23.2850 111.3370 100° East 447 514 31,100  Level FlightAware
06:17AM 23.2740 111.4050 100° East 447 514 31,100 -5,580 Level FlightAware
06:17AM 23.2480 111.5190 104° East 408 470 24,500 -5,400 Descending FlightAware
06:18AM 23.2330 111.6010 101° East 406 467 23,900 -2,160 Descending FlightAware
06:18AM 23.2190 111.6770 101° East 396 456 21,700 -2,220 Descending FlightAware
06:19AM 23.2010 111.7740 101° East 393 452 20,700 -660 Descending FlightAware
06:20AM 23.1910 111.8350 100° East 393 452 20,700 -2,160 Level FlightAware
06:21AM 23.1720 111.9360 102° East 381 438 17,700 -2,160 Descending FlightAware
06:21AM 23.1620 111.9940 101° East 381 438 17,700 -1,860 Level FlightAware
06:22AM 23.1490 112.0620 102° East 350 403 15,600 -2,520 Descending FlightAware
06:22AM 23.1370 112.1240 102° East 344 396 14,900 -1,140 Descending FlightAware
06:23AM 23.1260 112.1860 101° East 338 389 14,300 -960 Descending FlightAware
06:24AM 23.1160 112.2390 102° East 332 382 13,800 -900 Descending FlightAware
06:24AM 23.1020 112.3140 101° East 329 379 13,200 -780 Descending FlightAware
06:25AM 23.0930 112.3640 101° East 322 371 12,800 -780 Descending FlightAware
06:26AM 23.0820 112.4200 102° East 320 368 12,400 -420 Descending FlightAware
06:26AM 23.0730 112.4770 100° East 320 368 12,300 -600 Descending FlightAware
06:27AM 23.0690 112.5510 93° East 316 364 11,600 -1,320 Descending FlightAware
06:27AM 23.0690 112.6010 90° East 300 345 10,700 -1,320 Descending FlightAware
06:28AM 23.0690 112.6800 90° East 292 336 9,800 -1,020 Descending FlightAware
06:29AM 23.0690 112.7100 90° East 289 333 9,500 -960 Descending FlightAware
06:29AM 23.0690 112.7450 90° East 288 331 9,100 -1,080 Descending FlightAware
06:30AM 23.0690 112.7850 90° East 283 326 8,600 -1,020 Descending FlightAware
06:30AM 23.0680 112.8130 92° East 281 323 8,300 -960 Descending FlightAware
06:30AM 23.0680 112.8300 90° East 279 321 8,100 -1,020 Descending FlightAware
06:30AM 23.0680 112.8630 90° East 279 321 7,700 -1,140 Descending FlightAware
06:31AM 23.0680 112.8910 90° East 277 319 7,300 -1,140 Descending FlightAware
06:31AM 23.0680 112.9170 90° East 275 316 7,000 -900 Descending FlightAware
06:31AM 23.0680 112.9470 90° East 276 318 6,700 -960 Descending FlightAware
06:32AM 23.0680 112.9680 90° East 274 315 6,400 -1,020 Descending FlightAware
06:32AM 23.0670 112.9940 92° East 271 312 6,100 -1,020 Descending FlightAware
06:33AM 23.0690 113.0340 87° East 268 308 5,600 -1,020 Descending FlightAware
06:33AM 23.0780 113.0590 69° East 269 310 5,300 -960 Descending FlightAware
06:33AM 23.0880 113.0840 66° East 262 302 5,000 -720 Descending FlightAware
06:33AM 23.0940 113.1020 70° East 251 289 4,900 -540 Descending FlightAware
06:34AM 23.1020 113.1250 69° East 241 277 4,700 -660 Descending FlightAware
06:34AM 23.1060 113.1340 64° Northeast 236 272 4,600 -780 Descending FlightAware
06:34AM 23.1120 113.1420 51° Northeast 233 268 4,500 -600 Descending FlightAware
06:34AM 23.1270 113.1590 46° Northeast 217 250 4,300 -600 Descending FlightAware
06:35AM 23.1410 113.1760 48° Northeast 202 232 4,100 -600 Descending FlightAware
06:35AM 23.1530 113.1900 47° Northeast 194 223 3,900 -720 Descending FlightAware
06:35AM 23.1620 113.2010 48° Northeast 187 215 3,700 -720 Descending FlightAware
06:36AM 23.1730 113.2140 47° Northeast 179 206 3,500 -660 Descending FlightAware
06:36AM 23.1830 113.2260 48° Northeast 175 201 3,300 -660 Descending FlightAware
06:36AM 23.1890 113.2310 37° Northeast 172 198 3,200 -420 Descending FlightAware
06:36AM 23.1950 113.2340 25° Northeast 170 196 3,200 -420 Level FlightAware
06:37AM 23.2110 113.2390 16° North 166 191 3,000 -480 Descending FlightAware
06:37AM 23.2240 113.2420 12° North 157 181 2,900 -480 Descending FlightAware
06:37AM 23.2380 113.2460 15° North 156 180 2,700 -600 Descending FlightAware
06:38AM 23.2590 113.2520 15° North 148 170 2,400 -780 Descending FlightAware
06:38AM 23.2720 113.2550 12° North 138 159 2,100 -720 Descending FlightAware
06:39AM 23.2850 113.2590 16° North 134 154 1,900 -720 Descending FlightAware
06:39AM 23.2980 113.2620 12° North 132 152 1,600 -780 Descending FlightAware
06:39AM 23.3090 113.2650 14° North 131 151 1,400 -720 Descending FlightAware
06:40AM 23.3240 113.2700 17° North 132 152 1,100 -360 Descending FlightAware
06:40AM 23.3370 113.2730 12° North 132 152 1,100  Level FlightAware
06:43AM 23.3924 113.2988 23° Northeast  Level Estimated
06:44AM 23.3924 113.2988 223° Southwest  Level Estimated
06:45AM 23.3924 113.2988 223° Southwest  Level Estimated
06:46AM 23.3924 113.2988 223° Southwest  Level Estimated
06:47AM 23.3924 113.2988 223° Southwest  Level Estimated